Time;durP1;ratioP1;P1;durP2;ratioP2;P2;SDS_P1;SDS_P2;PMS_P1;PMS_P2;Temp;Humidity;BMP_temperature;BMP_pressure;BME280_temperature;BME280_humidity;BME280_pressure;Samples;Min_cycle;Max_cycle;Signal;HPM_P1;HPM_P2
2022/09/15 00:02:14;;;;;;;0.73;0.73;;;;;;;15.53;72.62;100111.09;5204059;28;20559;-83
2022/09/15 00:04:45;;;;;;;1.02;1.02;;;;;;;15.55;72.61;100114.47;5176360;28;20030;-85
2022/09/15 00:07:15;;;;;;;1.65;0.88;;;;;;;15.54;72.41;100111.94;5213552;28;20035;-82
2022/09/15 00:09:46;;;;;;;1.13;1.10;;;;;;;15.57;72.43;100109.97;5165105;28;20053;-85
2022/09/15 00:12:17;;;;;;;3.35;2.03;;;;;;;15.52;72.44;100108.50;5169113;28;20055;-84
2022/09/15 00:14:47;;;;;;;1.27;1.17;;;;;;;15.51;72.54;100104.16;5175147;28;20085;-84
2022/09/15 00:17:19;;;;;;;1.48;1.10;;;;;;;15.51;72.24;100112.09;5145841;28;20111;-83
2022/09/15 00:19:49;;;;;;;2.20;1.23;;;;;;;15.48;72.26;100107.00;5168042;28;20084;-83
2022/09/15 00:22:20;;;;;;;6.07;1.30;;;;;;;15.49;71.99;100101.63;5149344;28;20051;-84
2022/09/15 00:24:51;;;;;;;0.77;0.73;;;;;;;15.48;72.23;100104.34;5168626;28;20308;-84
2022/09/15 00:27:21;;;;;;;2.65;1.90;;;;;;;15.49;71.88;100101.63;5196141;28;20038;-84
2022/09/15 00:29:52;;;;;;;1.45;0.95;;;;;;;15.48;72.02;100099.06;5171903;28;20034;-82
2022/09/15 00:32:22;;;;;;;0.88;0.88;;;;;;;15.49;71.83;100098.97;5172814;28;20034;-82
2022/09/15 00:34:53;;;;;;;1.08;1.00;;;;;;;15.47;71.72;100092.06;5197256;28;20026;-85
2022/09/15 00:37:23;;;;;;;1.33;1.23;;;;;;;15.45;71.82;100096.59;5170838;28;20109;-86
2022/09/15 00:39:54;;;;;;;2.10;1.75;;;;;;;15.43;71.70;100100.16;5217019;28;20038;-85
2022/09/15 00:42:25;;;;;;;1.05;1.02;;;;;;;15.47;71.47;100113.22;5236458;28;20053;-86
2022/09/15 00:44:59;;;;;;;1.67;1.42;;;;;;;15.40;71.73;100116.22;5184784;28;20053;-84
2022/09/15 00:47:37;;;;;;;0.55;0.55;;;;;;;15.38;71.93;100111.94;5191380;28;20045;-85
2022/09/15 00:50:17;;;;;;;0.82;0.82;;;;;;;15.37;71.63;100113.75;5208564;28;20041;-85
2022/09/15 00:52:56;;;;;;;0.80;0.80;;;;;;;15.36;71.59;100119.13;5210562;28;20034;-85
2022/09/15 00:55:34;;;;;;;1.08;1.05;;;;;;;15.38;71.55;100128.66;5188019;28;20043;-81
2022/09/15 00:58:12;;;;;;;1.88;1.77;;;;;;;15.34;71.50;100121.00;5209737;28;20073;-82
2022/09/15 01:00:55;;;;;;;6.05;0.70;;;;;;;15.30;71.67;100124.75;5197000;28;20037;-83
2022/09/15 01:03:29;;;;;;;0.95;0.95;;;;;;;15.26;71.97;100124.94;5223152;28;20058;-82
2022/09/15 01:06:10;;;;;;;1.27;1.17;;;;;;;15.32;71.57;100118.44;5229502;28;20060;-85
2022/09/15 01:08:51;;;;;;;0.93;0.93;;;;;;;15.29;71.28;100128.34;5233870;28;20514;-82
2022/09/15 01:11:21;;;;;;;1.27;1.17;;;;;;;15.20;71.66;100127.06;5200869;28;20463;-82
2022/09/15 01:13:52;;;;;;;1.27;1.23;;;;;;;15.23;71.68;100121.59;5159844;28;20039;-82
2022/09/15 01:16:22;;;;;;;1.15;1.08;;;;;;;15.20;71.59;100120.00;5142450;28;20031;-84
2022/09/15 01:19:31;;;;;;;1.13;1.10;;;;;;;15.24;71.75;100118.88;5141038;28;20524;-83
2022/09/15 01:22:18;;;;;;;2.83;1.15;;;;;;;15.18;71.81;100118.34;5175523;28;20030;-84
2022/09/15 01:25:06;;;;;;;0.80;0.80;;;;;;;15.21;71.51;100112.91;5171724;28;20038;-83
2022/09/15 01:27:49;;;;;;;3.25;1.63;;;;;;;15.18;71.74;100110.44;5183373;28;20073;-83
2022/09/15 01:30:22;;;;;;;1.20;1.13;;;;;;;15.19;71.51;100113.00;5171418;28;20099;-84
2022/09/15 01:33:05;;;;;;;1.38;1.27;;;;;;;15.20;71.65;100108.56;5192175;28;20046;-82
2022/09/15 01:35:48;;;;;;;0.50;0.50;;;;;;;15.19;71.85;100101.56;5195711;28;20038;-86
2022/09/15 01:38:25;;;;;;;1.27;1.17;;;;;;;15.13;71.98;100099.28;5152659;28;20039;-84
2022/09/15 01:40:58;;;;;;;1.00;1.00;;;;;;;15.14;71.56;100100.97;5176389;28;20043;-85
2022/09/15 01:43:31;;;;;;;0.73;0.73;;;;;;;15.16;71.28;100104.41;5191704;28;20395;-85
2022/09/15 01:46:08;;;;;;;4.95;1.92;;;;;;;15.13;71.35;100105.41;5174267;28;20041;-83
2022/09/15 01:48:40;;;;;;;0.73;0.73;;;;;;;15.16;71.27;100101.75;5182764;28;20149;-85
2022/09/15 01:51:13;;;;;;;2.28;1.17;;;;;;;15.13;71.23;100105.41;5176922;28;20026;-86
2022/09/15 01:53:45;;;;;;;4.35;1.45;;;;;;;15.11;70.95;100107.31;5193154;28;20181;-81
2022/09/15 01:56:16;;;;;;;2.90;1.50;;;;;;;15.10;71.46;100102.94;5161814;28;20720;-83
2022/09/15 01:58:50;;;;;;;2.13;1.88;;;;;;;15.08;71.19;100103.00;5126639;28;20050;-82
2022/09/15 02:01:39;;;;;;;0.80;0.80;;;;;;;15.08;71.25;100107.47;5190159;28;20122;-82
2022/09/15 02:04:21;;;;;;;1.48;1.38;;;;;;;15.09;71.09;100107.38;5141497;28;20134;-84
2022/09/15 02:07:01;;;;;;;0.73;0.73;;;;;;;15.16;70.90;100099.13;5161223;28;20050;-83
2022/09/15 02:09:39;;;;;;;0.95;0.95;;;;;;;15.10;70.97;100111.72;5193372;28;20026;-82
2022/09/15 02:12:18;;;;;;;1.15;1.08;;;;;;;15.05;71.11;100105.84;5160891;28;20042;-82
2022/09/15 02:15:07;;;;;;;4.03;1.20;;;;;;;15.01;71.14;100106.94;5128916;28;20030;-83
2022/09/15 02:17:46;;;;;;;1.00;1.00;;;;;;;15.05;71.24;100111.13;5172473;28;20098;-82
2022/09/15 02:20:24;;;;;;;1.92;1.83;;;;;;;14.97;71.55;100104.56;5165476;28;20042;-82
2022/09/15 02:22:59;;;;;;;2.60;1.77;;;;;;;14.95;71.60;100104.63;5128353;28;20061;-83
2022/09/15 02:25:36;;;;;;;0.93;0.90;;;;;;;14.96;70.76;100103.72;5211026;28;20061;-82
2022/09/15 02:28:10;;;;;;;0.93;0.90;;;;;;;15.01;71.15;100106.94;5201801;28;20046;-82
2022/09/15 02:30:43;;;;;;;1.75;0.95;;;;;;;15.03;71.08;100104.22;5186065;28;20030;-83
2022/09/15 02:33:18;;;;;;;;;;;;;;;14.99;71.30;100106.19;5173157;28;20117;-82
2022/09/15 02:35:51;;;;;;;1.38;1.08;;;;;;;14.92;71.41;100110.94;5192271;28;19920;-83
2022/09/15 02:38:22;;;;;;;1.77;1.67;;;;;;;14.96;71.73;100114.28;5153295;28;20054;-82
2022/09/15 02:40:53;;;;;;;1.48;1.02;;;;;;;14.92;72.10;100108.31;5153469;28;20042;-81
2022/09/15 02:43:23;;;;;;;4.30;1.63;;;;;;;15.06;71.76;100115.47;5180669;28;20046;-81
2022/09/15 02:45:54;;;;;;;1.60;1.50;;;;;;;14.97;72.28;100117.75;5196173;28;20069;-82
2022/09/15 02:48:25;;;;;;;9.23;0.85;;;;;;;14.83;72.82;100118.53;5169765;28;20096;-82
2022/09/15 02:50:55;;;;;;;1.17;1.13;;;;;;;14.86;72.52;100123.63;5178675;28;20030;-83
2022/09/15 02:53:26;;;;;;;3.65;1.58;;;;;;;14.86;73.06;100113.94;5142519;28;20057;-82
2022/09/15 02:55:56;;;;;;;3.92;1.42;;;;;;;14.74;72.68;100115.47;5179837;28;20038;-84
2022/09/15 02:58:27;;;;;;;5.28;1.65;;;;;;;14.74;72.27;100119.88;5158089;28;20051;-82
2022/09/15 03:01:14;;;;;;;0.68;0.68;;;;;;;14.75;71.89;100119.78;5177078;28;20038;-83
2022/09/15 03:04:04;;;;;;;1.70;1.15;;;;;;;14.89;72.58;100116.41;5148753;28;20072;-81
2022/09/15 03:06:53;;;;;;;;;;;;;;;;;;;;;
2022/09/15 03:09:40;;;;;;;1.05;0.95;;;;;;;14.80;72.60;100108.97;5184401;28;20038;-81
2022/09/15 03:12:14;;;;;;;1.63;1.30;;;;;;;14.78;72.20;100113.50;5131975;28;20080;-82
2022/09/15 03:14:46;;;;;;;1.75;1.00;;;;;;;14.70;71.98;100111.25;5190355;28;20655;-83
2022/09/15 03:17:17;;;;;;;1.75;1.13;;;;;;;14.65;72.67;100121.19;5184492;28;20042;-81
2022/09/15 03:19:48;;;;;;;1.20;1.02;;;;;;;14.66;72.02;100119.41;5179093;28;20053;-82
2022/09/15 03:22:19;;;;;;;1.55;1.42;;;;;;;14.68;72.00;100128.97;5177716;28;20048;-82
2022/09/15 03:24:50;;;;;;;3.42;2.85;;;;;;;14.67;72.43;100119.34;5194612;28;20042;-82
2022/09/15 03:27:21;;;;;;;1.92;1.83;;;;;;;14.66;74.47;100107.09;5178485;28;20043;-83
2022/09/15 03:29:52;;;;;;;3.50;2.38;;;;;;;14.66;73.27;100117.66;5157934;28;20570;-83
2022/09/15 03:32:23;;;;;;;1.02;1.02;;;;;;;14.67;74.23;100108.78;5165186;28;20084;-82
2022/09/15 03:34:54;;;;;;;1.25;1.17;;;;;;;14.60;74.47;100113.53;5158115;28;20642;-82
2022/09/15 03:37:25;;;;;;;4.80;1.95;;;;;;;14.55;74.59;100119.97;5158501;28;20064;-84
2022/09/15 03:39:55;;;;;;;3.58;3.28;;;;;;;14.43;76.74;100118.84;5209344;28;20045;-84
2022/09/15 03:42:26;;;;;;;14.38;1.92;;;;;;;14.35;77.78;100118.41;5194749;28;20031;-84
2022/09/15 03:44:57;;;;;;;1.58;1.48;;;;;;;14.46;75.80;100123.97;5150897;28;20035;-81
2022/09/15 03:47:27;;;;;;;4.47;2.13;;;;;;;14.50;76.44;100119.38;5204199;28;20038;-82
2022/09/15 03:49:58;;;;;;;5.03;2.90;;;;;;;14.50;76.19;100128.16;5187212;28;20097;-81
2022/09/15 03:52:30;;;;;;;1.08;1.08;;;;;;;14.46;76.18;100126.63;5166508;28;20068;-83
2022/09/15 03:55:01;;;;;;;1.80;1.70;;;;;;;14.55;75.56;100127.91;5191567;28;20065;-82
2022/09/15 03:57:32;;;;;;;1.08;0.98;;;;;;;14.53;75.04;100132.41;5142604;28;20059;-82
2022/09/15 04:00:07;;;;;;;1.70;1.60;;;;;;;14.55;75.61;100123.47;5148090;28;20041;-81
2022/09/15 04:02:38;;;;;;;2.67;2.38;;;;;;;14.43;77.28;100127.59;5191296;28;20050;-82
2022/09/15 04:05:08;;;;;;;1.77;1.65;;;;;;;14.42;76.17;100119.78;5179921;28;20057;-82
2022/09/15 04:07:40;;;;;;;1.98;1.52;;;;;;;14.52;75.61;100121.00;5157617;28;20042;-82
2022/09/15 04:10:10;;;;;;;1.83;1.73;;;;;;;14.49;75.71;100126.44;5189077;28;20070;-82
2022/09/15 04:12:41;;;;;;;2.85;2.25;;;;;;;14.42;76.34;100123.25;5194104;28;20069;-82
2022/09/15 04:15:12;;;;;;;2.35;2.15;;;;;;;14.42;75.91;100125.91;5172228;28;20399;-83
2022/09/15 04:17:42;;;;;;;1.90;1.80;;;;;;;14.45;75.59;100117.81;5166083;28;20038;-84
2022/09/15 04:20:13;;;;;;;0.65;0.65;;;;;;;14.44;77.37;100105.56;5160339;28;20069;-83
2022/09/15 04:22:44;;;;;;;1.55;1.45;;;;;;;14.42;75.62;100109.22;5201516;28;20046;-83
2022/09/15 04:25:14;;;;;;;0.70;0.70;;;;;;;14.49;75.17;100113.25;5182589;28;20074;-82
2022/09/15 04:27:45;;;;;;;13.23;1.40;;;;;;;14.47;77.37;100118.59;5170855;28;20391;-84
2022/09/15 04:30:16;;;;;;;8.43;2.05;;;;;;;14.31;78.06;100117.72;5183203;28;20034;-82
2022/09/15 04:32:46;;;;;;;0.60;0.60;;;;;;;14.33;78.08;100116.69;5192626;28;20045;-84
2022/09/15 04:35:17;;;;;;;2.35;2.15;;;;;;;14.25;78.90;100120.69;5150831;28;20102;-82
2022/09/15 04:37:48;;;;;;;4.97;2.72;;;;;;;14.33;76.90;100119.31;5169528;28;20047;-82
2022/09/15 04:40:19;;;;;;;5.05;1.88;;;;;;;14.39;76.78;100115.53;5189959;28;20058;-83
2022/09/15 04:42:49;;;;;;;1.63;1.52;;;;;;;14.38;76.64;100121.72;5138748;28;20495;-84
2022/09/15 04:45:20;;;;;;;3.45;1.35;;;;;;;14.38;76.70;100121.72;5179723;28;20054;-83
2022/09/15 04:47:52;;;;;;;1.65;1.55;;;;;;;14.34;77.08;100128.09;5186777;28;20053;-84
2022/09/15 04:50:22;;;;;;;2.03;1.33;;;;;;;14.33;78.46;100121.97;5169756;28;20042;-84
2022/09/15 04:52:53;;;;;;;1.75;1.50;;;;;;;14.40;76.97;100124.28;5176301;28;20529;-81
2022/09/15 04:55:25;;;;;;;1.35;1.25;;;;;;;14.47;76.18;100123.88;5144957;28;20066;-83
2022/09/15 04:57:56;;;;;;;2.67;2.35;;;;;;;14.45;76.24;100130.19;5161649;28;20097;-84
2022/09/15 05:00:28;;;;;;;1.73;1.60;;;;;;;14.52;76.82;100120.13;5182898;28;20039;-81
2022/09/15 05:02:59;;;;;;;1.38;1.30;;;;;;;14.34;78.75;100117.53;5178193;28;20101;-82
2022/09/15 05:05:32;;;;;;;0.98;0.88;;;;;;;14.42;76.77;100125.91;5206162;28;20526;-81
2022/09/15 05:08:06;;;;;;;2.67;1.58;;;;;;;14.41;76.68;100128.63;5162972;28;20054;-82
2022/09/15 05:10:37;;;;;;;1.48;1.02;;;;;;;14.47;77.70;100131.81;5160077;28;20037;-82
2022/09/15 05:13:07;;;;;;;2.25;2.05;;;;;;;14.43;77.22;100127.59;5131902;28;20043;-81
2022/09/15 05:15:38;;;;;;;0.88;0.85;;;;;;;14.46;77.44;100124.81;5176139;28;20133;-82
2022/09/15 05:18:09;;;;;;;7.93;1.50;;;;;;;14.47;77.02;100129.16;5188891;28;20124;-82
2022/09/15 05:20:40;;;;;;;4.72;2.30;;;;;;;14.42;76.13;100131.19;5161292;28;20065;-81
2022/09/15 05:23:10;;;;;;;2.38;1.52;;;;;;;14.41;76.75;100141.81;5176679;28;20068;-82
2022/09/15 05:25:41;;;;;;;0.77;0.77;;;;;;;14.43;77.55;100142.59;5178505;28;20042;-82
2022/09/15 05:28:11;;;;;;;1.75;1.60;;;;;;;14.44;76.73;100153.06;5206264;28;20038;-82
2022/09/15 05:30:42;;;;;;;2.65;2.05;;;;;;;14.47;76.31;100152.91;5187243;28;20030;-82
2022/09/15 05:33:13;;;;;;;6.97;3.03;;;;;;;14.43;76.63;100155.78;5180264;28;20071;-82
2022/09/15 05:35:53;;;;;;;2.60;1.50;;;;;;;14.39;76.40;100157.75;5171220;28;20035;-82
2022/09/15 05:38:24;;;;;;;2.10;1.95;;;;;;;14.36;78.09;100159.69;5159843;28;20051;-81
2022/09/15 05:41:01;;;;;;;2.15;1.95;;;;;;;14.19;78.81;100158.78;5154130;28;20126;-81
2022/09/15 05:43:41;;;;;;;1.33;1.23;;;;;;;14.36;76.46;100157.06;5165675;28;20375;-81
2022/09/15 05:46:13;;;;;;;1.83;1.73;;;;;;;14.31;78.34;100162.56;5185910;28;20033;-81
2022/09/15 05:48:45;;;;;;;2.53;1.55;;;;;;;14.30;77.52;100160.84;5192775;28;20343;-81
2022/09/15 05:51:15;;;;;;;2.97;1.65;;;;;;;14.32;76.96;100156.38;5153212;28;20054;-82
2022/09/15 05:53:46;;;;;;;1.95;1.35;;;;;;;14.46;76.79;100159.13;5199295;28;20065;-82
2022/09/15 05:56:18;;;;;;;2.08;1.88;;;;;;;14.43;76.03;100164.56;5172232;28;20042;-81
2022/09/15 05:58:49;;;;;;;2.30;2.10;;;;;;;14.48;75.86;100166.97;5178510;28;20047;-83
2022/09/15 06:01:25;;;;;;;1.48;1.40;;;;;;;14.49;76.09;100163.38;5162336;28;20086;-80
2022/09/15 06:03:57;;;;;;;1.73;1.63;;;;;;;14.38;77.51;100169.22;5172018;28;20049;-81
2022/09/15 06:06:30;;;;;;;1.48;1.38;;;;;;;14.47;76.36;100171.41;5158503;28;20072;-82
2022/09/15 06:09:04;;;;;;;1.55;1.45;;;;;;;14.60;75.82;100170.75;5146223;28;20636;-81
2022/09/15 06:11:38;;;;;;;2.13;1.48;;;;;;;14.55;76.46;100170.13;5176683;28;20120;-80
2022/09/15 06:14:12;;;;;;;1.38;1.30;;;;;;;14.47;76.63;100176.69;5160054;28;20065;-80
2022/09/15 06:16:42;;;;;;;1.13;0.95;;;;;;;14.57;75.48;100177.03;5158436;28;20038;-83
2022/09/15 06:19:13;;;;;;;6.20;1.77;;;;;;;14.57;77.57;100182.31;5180141;28;20046;-82
2022/09/15 06:21:44;;;;;;;1.70;1.60;;;;;;;14.56;78.56;100177.13;5182134;28;20551;-81
2022/09/15 06:24:14;;;;;;;1.40;1.27;;;;;;;14.59;77.58;100179.59;5162653;28;20034;-81
2022/09/15 06:26:45;;;;;;;1.52;1.42;;;;;;;14.68;76.76;100179.13;5174725;28;20042;-81
2022/09/15 06:29:15;;;;;;;3.33;2.38;;;;;;;14.65;76.80;100181.94;5171722;28;20478;-81
2022/09/15 06:31:46;;;;;;;3.10;1.90;;;;;;;14.71;76.17;100192.19;5167797;28;20105;-81
2022/09/15 06:34:17;;;;;;;1.23;1.13;;;;;;;14.71;78.06;100183.44;5137739;28;20034;-81
2022/09/15 06:36:47;;;;;;;2.05;1.85;;;;;;;14.64;80.13;100182.84;5151050;28;20054;-81
2022/09/15 06:39:18;;;;;;;2.88;2.53;;;;;;;14.71;79.43;100183.44;5175839;28;20503;-80
2022/09/15 06:41:48;;;;;;;0.88;0.88;;;;;;;14.60;80.99;100190.09;5157933;28;20038;-80
2022/09/15 06:44:19;;;;;;;1.00;0.90;;;;;;;14.71;78.73;100196.63;5164869;28;20108;-80
2022/09/15 06:46:50;;;;;;;2.88;2.10;;;;;;;14.72;79.26;100190.38;5163177;28;20054;-81
2022/09/15 06:49:21;;;;;;;1.10;1.10;;;;;;;14.73;77.82;100192.97;5144738;28;20400;-82
2022/09/15 06:51:51;;;;;;;1.38;1.27;;;;;;;14.78;78.08;100198.84;5159869;28;20045;-80
2022/09/15 06:54:22;;;;;;;0.68;0.55;;;;;;;14.81;77.88;100204.91;5155253;28;20037;-80
2022/09/15 06:56:53;;;;;;;2.25;1.58;;;;;;;14.73;79.85;100206.19;5204250;28;20079;-81
2022/09/15 06:59:23;;;;;;;1.75;1.13;;;;;;;14.75;78.74;100209.56;5154131;28;20338;-80
2022/09/15 07:01:54;;;;;;;2.38;2.17;;;;;;;14.69;80.97;100207.25;5192165;28;20061;-80
2022/09/15 07:04:35;;;;;;;1.40;1.10;;;;;;;14.71;81.18;100210.69;5156022;28;20054;-81
2022/09/15 07:07:09;;;;;;;1.27;1.20;;;;;;;14.75;80.89;100211.38;5172358;28;20491;-81
2022/09/15 07:09:40;;;;;;;2.42;2.25;;;;;;;14.68;81.64;100199.44;5160606;28;20045;-80
2022/09/15 07:12:13;;;;;;;6.13;3.20;;;;;;;14.73;80.16;100208.81;5183394;28;20047;-81
2022/09/15 07:14:44;;;;;;;1.15;1.08;;;;;;;14.84;80.25;100210.88;5216518;28;20391;-80
2022/09/15 07:17:15;;;;;;;3.58;2.28;;;;;;;14.74;81.51;100215.81;5198848;28;20108;-81
2022/09/15 07:19:48;;;;;;;1.60;1.50;;;;;;;14.75;81.99;100221.94;5157314;28;20046;-80
2022/09/15 07:22:19;;;;;;;0.68;0.68;;;;;;;14.82;80.53;100225.09;5136228;28;20464;-80
2022/09/15 07:24:49;;;;;;;1.15;1.13;;;;;;;14.76;81.41;100219.19;5186778;28;20034;-80
2022/09/15 07:27:25;;;;;;;3.13;2.08;;;;;;;14.71;82.64;100223.03;5161603;28;20066;-80
2022/09/15 07:29:55;;;;;;;1.35;1.13;;;;;;;14.77;81.03;100230.63;5192756;28;20068;-80
2022/09/15 07:32:41;;;;;;;1.15;1.08;;;;;;;14.87;79.91;100231.00;5157722;28;20480;-81
2022/09/15 07:35:14;;;;;;;1.83;1.73;;;;;;;14.89;79.41;100223.84;5191602;28;20034;-80
2022/09/15 07:37:47;;;;;;;1.33;1.23;;;;;;;14.91;79.74;100232.56;5192172;28;20078;-81
2022/09/15 07:40:22;;;;;;;0.95;0.88;;;;;;;14.92;81.70;100234.22;5177106;28;20122;-80
2022/09/15 07:43:00;;;;;;;2.78;1.70;;;;;;;14.93;81.44;100235.94;5160920;28;20560;-80
2022/09/15 07:45:51;;;;;;;1.60;1.50;;;;;;;14.92;81.69;100228.94;5196243;28;20085;-81
2022/09/15 07:48:34;;;;;;;1.00;1.00;;;;;;;15.01;79.98;100244.31;5171870;28;20132;-81
2022/09/15 07:51:07;;;;;;;1.98;1.60;;;;;;;15.02;81.33;100250.47;5151167;28;20034;-80
2022/09/15 07:53:38;;;;;;;1.52;1.42;;;;;;;15.09;80.79;100257.97;5178388;28;20039;-79
2022/09/15 07:56:08;;;;;;;3.60;2.22;;;;;;;15.22;79.36;100262.59;5137515;28;20484;-81
2022/09/15 07:58:39;;;;;;;0.95;0.40;;;;;;;15.24;79.46;100260.75;5166707;28;20102;-80
2022/09/15 08:01:10;;;;;;;1.25;1.15;;;;;;;15.23;80.99;100259.03;5159652;28;20040;-81
2022/09/15 08:03:43;;;;;;;0.40;0.40;;;;;;;15.32;79.15;100269.09;5164511;28;20034;-81
2022/09/15 08:06:22;;;;;;;1.92;1.27;;;;;;;15.38;79.39;100268.78;5173902;28;20044;-80
2022/09/15 08:08:53;;;;;;;1.73;1.63;;;;;;;15.42;80.31;100269.44;5160656;28;20515;-80
2022/09/15 08:11:25;;;;;;;2.08;1.63;;;;;;;15.43;79.75;100287.03;5168504;28;20113;-80
2022/09/15 08:14:09;;;;;;;1.60;1.50;;;;;;;15.49;80.00;100275.28;5156610;28;20057;-81
2022/09/15 08:16:40;;;;;;;0.88;0.88;;;;;;;15.54;80.62;100276.69;5162045;28;20038;-81
2022/09/15 08:19:13;;;;;;;2.17;2.08;;;;;;;15.66;79.33;100283.09;5182703;28;20035;-81
2022/09/15 08:21:43;;;;;;;2.35;1.60;;;;;;;15.60;79.61;100291.38;5200015;28;20065;-80
2022/09/15 08:24:16;;;;;;;1.00;1.00;;;;;;;15.71;78.84;100299.59;5179179;28;20035;-83
2022/09/15 08:26:49;;;;;;;1.20;1.10;;;;;;;15.74;79.05;100298.56;5191330;28;20053;-83
2022/09/15 08:29:22;;;;;;;1.25;0.88;;;;;;;15.74;78.85;100295.91;5219699;28;20038;-83
2022/09/15 08:31:56;;;;;;;1.10;0.95;;;;;;;15.78;80.08;100296.59;5195195;28;20052;-82
2022/09/15 08:34:29;;;;;;;0.90;0.90;;;;;;;15.87;78.65;100299.59;5201779;28;20026;-83
2022/09/15 08:36:59;;;;;;;;;;;;;;;15.82;78.79;100300.78;5186929;28;20042;-83
2022/09/15 08:39:40;;;;;;;11.00;1.38;;;;;;;15.85;78.94;100303.28;5170974;28;19921;-83
2022/09/15 08:42:16;;;;;;;5.25;1.67;;;;;;;15.97;78.66;100302.59;5196881;28;20049;-81
2022/09/15 08:44:57;;;;;;;8.07;3.30;;;;;;;15.91;79.44;100308.22;5162370;28;20017;-83
2022/09/15 08:47:33;;;;;;;11.50;1.98;;;;;;;15.85;79.82;100306.78;5202150;28;20046;-83
2022/09/15 08:50:09;;;;;;;4.80;3.25;;;;;;;15.97;79.31;100310.53;5186037;28;20018;-82
2022/09/15 08:52:49;;;;;;;3.67;3.38;;;;;;;15.92;80.05;100315.22;5211312;28;20043;-81
2022/09/15 08:55:25;;;;;;;3.88;1.60;;;;;;;15.96;79.63;100316.75;5172176;28;20188;-82
2022/09/15 08:57:56;;;;;;;1.98;1.52;;;;;;;16.09;78.69;100324.00;5190613;28;20067;-80
2022/09/15 09:00:35;;;;;;;1.83;1.73;;;;;;;16.13;78.54;100317.59;5205622;28;20027;-81
2022/09/15 09:03:20;;;;;;;1.52;1.30;;;;;;;16.09;79.32;100322.22;5166799;28;20046;-81
2022/09/15 09:06:13;;;;;;;1.55;1.45;;;;;;;16.16;78.98;100322.69;5140778;28;20038;-81
2022/09/15 09:09:10;;;;;;;1.85;1.65;;;;;;;16.28;78.55;100319.38;5154762;28;20614;-80
2022/09/15 09:11:53;;;;;;;1.50;1.38;;;;;;;16.38;77.58;100332.09;5183850;28;20045;-80
2022/09/15 09:14:44;;;;;;;2.15;1.90;;;;;;;16.42;77.82;100329.16;5167001;28;20034;-80
2022/09/15 09:17:50;;;;;;;0.88;0.88;;;;;;;16.55;77.46;100323.16;5160191;28;20050;-80
2022/09/15 09:20:40;;;;;;;1.92;1.77;;;;;;;16.47;77.30;100331.56;5155411;28;20034;-81
2022/09/15 09:23:20;;;;;;;1.42;1.17;;;;;;;16.41;77.84;100331.88;5154999;28;20050;-81
2022/09/15 09:26:00;;;;;;;1.17;1.17;;;;;;;16.42;77.65;100338.88;5158318;28;20027;-81
2022/09/15 09:28:46;;;;;;;2.63;0.85;;;;;;;16.42;77.44;100339.75;5158456;28;20034;-81
2022/09/15 09:31:20;;;;;;;1.75;1.65;;;;;;;16.41;77.42;100335.41;5173193;28;20113;-80
2022/09/15 09:34:25;;;;;;;1.70;1.52;;;;;;;16.56;76.87;100341.63;5135425;28;20050;-81
2022/09/15 09:37:48;;;;;;;2.20;1.40;;;;;;;16.53;76.64;100333.84;5161309;28;20102;-82
2022/09/15 09:40:52;;;;;;;2.42;1.77;;;;;;;16.50;77.05;100326.06;5169548;28;20043;-81
2022/09/15 09:43:45;;;;;;;0.98;0.93;;;;;;;16.42;76.96;100338.88;5194475;28;20042;-82
2022/09/15 09:46:54;;;;;;;0.93;0.93;;;;;;;16.52;76.33;100338.28;5160839;28;20482;-82
2022/09/15 09:49:38;;;;;;;1.20;1.10;;;;;;;16.57;76.28;100335.34;5149619;28;20125;-81
2022/09/15 09:52:09;;;;;;;1.45;1.08;;;;;;;16.58;76.00;100338.88;5135293;28;20047;-82
2022/09/15 09:54:41;;;;;;;2.35;1.90;;;;;;;16.56;75.41;100335.44;5119819;28;20102;-81
2022/09/15 09:57:11;;;;;;;1.60;1.50;;;;;;;16.71;75.03;100334.53;5150983;28;20042;-82
2022/09/15 09:59:45;;;;;;;1.80;1.27;;;;;;;16.70;75.10;100332.84;5155419;28;20034;-82
2022/09/15 10:02:20;;;;;;;2.72;1.77;;;;;;;16.68;74.82;100330.28;5151566;28;20146;-81
2022/09/15 10:04:52;;;;;;;1.38;1.27;;;;;;;16.76;75.18;100326.31;5152200;28;20038;-81
2022/09/15 10:07:25;;;;;;;0.98;0.95;;;;;;;16.75;75.33;100329.91;5161965;28;20042;-81
2022/09/15 10:09:58;;;;;;;1.77;1.48;;;;;;;16.80;75.16;100328.69;5166819;28;20115;-80
2022/09/15 10:12:38;;;;;;;1.25;1.15;;;;;;;16.77;74.57;100328.03;5163171;28;20431;-81
2022/09/15 10:15:22;;;;;;;1.48;1.35;;;;;;;16.85;73.89;100325.78;5158020;28;20046;-81
2022/09/15 10:17:55;;;;;;;0.80;0.80;;;;;;;16.87;74.30;100325.69;5186806;28;20101;-80
2022/09/15 10:20:31;;;;;;;2.30;1.40;;;;;;;16.83;74.59;100328.53;5158109;28;20030;-80
2022/09/15 10:23:23;;;;;;;0.60;0.60;;;;;;;16.89;74.47;100327.31;5174176;28;20500;-80
2022/09/15 10:25:57;;;;;;;1.63;1.10;;;;;;;16.80;73.73;100322.56;5196870;28;20065;-80
2022/09/15 10:28:28;;;;;;;0.80;0.80;;;;;;;16.88;73.97;100325.63;5164621;28;20069;-80
2022/09/15 10:31:10;;;;;;;2.10;1.83;;;;;;;17.06;73.26;100323.66;5140268;28;20026;-80
2022/09/15 10:33:44;;;;;;;2.08;1.38;;;;;;;17.02;73.52;100326.59;5193563;28;20181;-80
2022/09/15 10:36:22;;;;;;;0.70;0.70;;;;;;;17.10;74.08;100329.63;5165231;28;20033;-80
2022/09/15 10:39:11;;;;;;;0.70;0.70;;;;;;;17.08;73.85;100321.78;5164157;28;20042;-80
2022/09/15 10:42:05;;;;;;;1.90;0.63;;;;;;;16.99;72.06;100328.47;5187302;28;20034;-80
2022/09/15 10:45:02;;;;;;;0.88;0.75;;;;;;;17.15;73.34;100330.19;5184337;28;20075;-79
2022/09/15 10:47:55;;;;;;;0.60;0.60;;;;;;;17.25;72.50;100326.03;5215107;28;20088;-80
2022/09/15 10:50:53;;;;;;;0.85;0.85;;;;;;;17.34;73.00;100327.28;5188780;28;20689;-80
2022/09/15 10:53:48;;;;;;;2.92;1.35;;;;;;;17.39;72.00;100324.38;5176452;28;20035;-80
2022/09/15 10:56:41;;;;;;;3.90;1.42;;;;;;;17.30;71.16;100328.41;5183422;28;20035;-80
2022/09/15 10:59:41;;;;;;;1.65;1.38;;;;;;;17.28;70.11;100323.22;5170286;28;20042;-80
2022/09/15 11:02:26;;;;;;;6.43;1.15;;;;;;;17.26;69.87;100324.25;5166611;28;20055;-80
2022/09/15 11:05:23;;;;;;;0.85;0.50;;;;;;;17.31;69.40;100330.13;5176706;28;20113;-80
2022/09/15 11:08:28;;;;;;;2.13;0.63;;;;;;;17.17;69.99;100330.97;5145386;28;20062;-79
2022/09/15 11:11:12;;;;;;;0.50;0.50;;;;;;;17.42;69.46;100340.94;5175455;28;20038;-80
2022/09/15 11:14:16;;;;;;;7.03;0.95;;;;;;;17.45;69.08;100337.22;5168273;28;20666;-80
2022/09/15 11:17:10;;;;;;;0.40;0.40;;;;;;;17.50;68.39;100342.25;5194045;28;20053;-80
2022/09/15 11:19:46;;;;;;;0.82;0.82;;;;;;;17.51;67.64;100333.34;5163701;28;20057;-80
2022/09/15 11:22:34;;;;;;;0.50;0.50;;;;;;;17.56;68.19;100329.44;5174265;28;20042;-80
2022/09/15 11:25:14;;;;;;;0.40;0.40;;;;;;;17.44;67.50;100327.56;5165039;28;20038;-80
2022/09/15 11:27:52;;;;;;;0.60;0.60;;;;;;;17.56;67.42;100324.13;5213066;28;20095;-79
2022/09/15 11:30:28;;;;;;;0.75;0.75;;;;;;;17.57;67.51;100327.66;5190818;28;20046;-80
2022/09/15 11:33:06;;;;;;;0.30;0.30;;;;;;;17.56;66.87;100324.13;5182228;28;20046;-80
2022/09/15 11:35:49;;;;;;;0.82;0.82;;;;;;;17.48;66.15;100334.38;5182076;28;20057;-80
2022/09/15 11:38:47;;;;;;;0.30;0.30;;;;;;;17.54;66.75;100323.41;5200822;28;20060;-80
2022/09/15 11:41:33;;;;;;;4.65;1.10;;;;;;;17.54;66.93;100334.00;5155836;28;20022;-81
2022/09/15 11:44:22;;;;;;;0.88;0.85;;;;;;;17.53;66.75;100331.44;5179403;28;20474;-80
2022/09/15 11:46:58;;;;;;;0.40;0.40;;;;;;;17.54;65.11;100333.13;5194440;28;20038;-80
2022/09/15 11:49:57;;;;;;;0.30;0.30;;;;;;;17.58;65.06;100330.19;5191134;28;20399;-80
2022/09/15 11:52:46;;;;;;;0.30;0.30;;;;;;;17.68;66.41;100325.19;5185188;28;20133;-80
2022/09/15 11:55:38;;;;;;;0.38;0.38;;;;;;;17.70;66.56;100323.25;5161367;28;20038;-81
2022/09/15 11:58:18;;;;;;;0.30;0.30;;;;;;;17.75;66.59;100330.94;5207296;28;20635;-80
2022/09/15 12:01:12;;;;;;;0.63;0.63;;;;;;;17.77;64.60;100335.19;5194299;28;20038;-81
2022/09/15 12:03:47;;;;;;;;;;;;;;;17.77;65.68;100337.00;5193693;28;20046;-80
2022/09/15 12:06:26;;;;;;;0.30;0.30;;;;;;;17.88;66.07;100337.19;5163626;28;19937;-80
2022/09/15 12:09:00;;;;;;;1.30;0.80;;;;;;;18.03;65.75;100332.69;5144797;28;20042;-80
2022/09/15 12:11:59;;;;;;;0.38;0.38;;;;;;;18.05;62.48;100341.44;5173641;28;20046;-82